sensor_id;sensor_type;location;lat;lon;timestamp;P1;durP1;ratioP1;P2;durP2;ratioP2
7539;SDS011;3811;49.006;12.076;2023-06-26T00:02:02;6.97;;;6.20;;
7539;SDS011;3811;49.006;12.076;2023-06-26T00:04:29;6.03;;;5.53;;
7539;SDS011;3811;49.006;12.076;2023-06-26T00:06:56;6.30;;;5.70;;
7539;SDS011;3811;49.006;12.076;2023-06-26T00:09:23;6.80;;;6.10;;
7539;SDS011;3811;49.006;12.076;2023-06-26T00:11:51;7.60;;;5.67;;
7539;SDS011;3811;49.006;12.076;2023-06-26T00:14:18;6.40;;;5.80;;
7539;SDS011;3811;49.006;12.076;2023-06-26T00:16:46;6.70;;;6.00;;
7539;SDS011;3811;49.006;12.076;2023-06-26T00:19:16;6.27;;;5.67;;
7539;SDS011;3811;49.006;12.076;2023-06-26T00:21:43;6.43;;;5.70;;
7539;SDS011;3811;49.006;12.076;2023-06-26T00:24:12;6.47;;;5.87;;
7539;SDS011;3811;49.006;12.076;2023-06-26T00:26:40;6.77;;;5.80;;
7539;SDS011;3811;49.006;12.076;2023-06-26T00:29:07;6.27;;;5.50;;
7539;SDS011;3811;49.006;12.076;2023-06-26T00:31:34;5.93;;;5.23;;
7539;SDS011;3811;49.006;12.076;2023-06-26T00:34:01;6.60;;;6.00;;
7539;SDS011;3811;49.006;12.076;2023-06-26T00:36:29;6.47;;;5.80;;
7539;SDS011;3811;49.006;12.076;2023-06-26T00:38:57;6.00;;;5.50;;
7539;SDS011;3811;49.006;12.076;2023-06-26T00:41:26;6.50;;;5.77;;
7539;SDS011;3811;49.006;12.076;2023-06-26T00:43:53;6.73;;;5.43;;
7539;SDS011;3811;49.006;12.076;2023-06-26T00:46:20;6.20;;;5.60;;
7539;SDS011;3811;49.006;12.076;2023-06-26T00:48:51;6.43;;;5.83;;
7539;SDS011;3811;49.006;12.076;2023-06-26T00:51:20;7.60;;;5.90;;
7539;SDS011;3811;49.006;12.076;2023-06-26T00:53:48;6.73;;;6.00;;
7539;SDS011;3811;49.006;12.076;2023-06-26T00:56:17;6.20;;;5.60;;
7539;SDS011;3811;49.006;12.076;2023-06-26T00:58:45;6.87;;;6.27;;
7539;SDS011;3811;49.006;12.076;2023-06-26T01:01:12;6.47;;;5.47;;
7539;SDS011;3811;49.006;12.076;2023-06-26T01:03:42;7.10;;;6.40;;
7539;SDS011;3811;49.006;12.076;2023-06-26T01:06:11;7.20;;;6.30;;
7539;SDS011;3811;49.006;12.076;2023-06-26T01:08:41;6.90;;;5.80;;
7539;SDS011;3811;49.006;12.076;2023-06-26T01:11:09;7.57;;;6.77;;
7539;SDS011;3811;49.006;12.076;2023-06-26T01:13:37;6.87;;;6.20;;
7539;SDS011;3811;49.006;12.076;2023-06-26T01:16:05;7.77;;;6.97;;
7539;SDS011;3811;49.006;12.076;2023-06-26T01:18:33;8.90;;;6.77;;
7539;SDS011;3811;49.006;12.076;2023-06-26T01:21:01;8.10;;;6.60;;
7539;SDS011;3811;49.006;12.076;2023-06-26T01:23:30;9.97;;;7.70;;
7539;SDS011;3811;49.006;12.076;2023-06-26T01:26:15;9.63;;;7.30;;
7539;SDS011;3811;49.006;12.076;2023-06-26T01:28:44;10.23;;;7.27;;
7539;SDS011;3811;49.006;12.076;2023-06-26T01:31:12;8.37;;;7.17;;
7539;SDS011;3811;49.006;12.076;2023-06-26T01:33:40;8.03;;;7.17;;
7539;SDS011;3811;49.006;12.076;2023-06-26T01:36:07;8.80;;;7.20;;
7539;SDS011;3811;49.006;12.076;2023-06-26T01:38:35;9.53;;;7.47;;
7539;SDS011;3811;49.006;12.076;2023-06-26T01:41:02;8.70;;;6.97;;
7539;SDS011;3811;49.006;12.076;2023-06-26T01:43:34;7.77;;;6.97;;
7539;SDS011;3811;49.006;12.076;2023-06-26T01:46:11;8.50;;;7.60;;
7539;SDS011;3811;49.006;12.076;2023-06-26T01:48:46;8.60;;;7.03;;
7539;SDS011;3811;49.006;12.076;2023-06-26T01:51:19;8.70;;;6.90;;
7539;SDS011;3811;49.006;12.076;2023-06-26T01:53:53;10.30;;;6.97;;
7539;SDS011;3811;49.006;12.076;2023-06-26T01:56:23;7.40;;;6.60;;
7539;SDS011;3811;49.006;12.076;2023-06-26T01:58:52;7.80;;;6.90;;
7539;SDS011;3811;49.006;12.076;2023-06-26T02:01:21;8.70;;;7.60;;
7539;SDS011;3811;49.006;12.076;2023-06-26T02:03:49;9.10;;;7.03;;
7539;SDS011;3811;49.006;12.076;2023-06-26T02:06:16;9.00;;;7.23;;
7539;SDS011;3811;49.006;12.076;2023-06-26T02:08:43;8.93;;;7.30;;
7539;SDS011;3811;49.006;12.076;2023-06-26T02:11:10;7.67;;;6.60;;
7539;SDS011;3811;49.006;12.076;2023-06-26T02:13:39;8.20;;;6.73;;
7539;SDS011;3811;49.006;12.076;2023-06-26T02:16:07;8.20;;;6.40;;
7539;SDS011;3811;49.006;12.076;2023-06-26T02:18:35;6.77;;;6.07;;
7539;SDS011;3811;49.006;12.076;2023-06-26T02:21:03;10.57;;;6.70;;
7539;SDS011;3811;49.006;12.076;2023-06-26T02:23:30;10.40;;;6.70;;
7539;SDS011;3811;49.006;12.076;2023-06-26T02:25:57;7.63;;;6.47;;
7539;SDS011;3811;49.006;12.076;2023-06-26T02:28:25;8.03;;;6.30;;
7539;SDS011;3811;49.006;12.076;2023-06-26T02:30:52;7.50;;;6.10;;
7539;SDS011;3811;49.006;12.076;2023-06-26T02:33:20;7.43;;;6.17;;
7539;SDS011;3811;49.006;12.076;2023-06-26T02:35:50;7.90;;;6.67;;
7539;SDS011;3811;49.006;12.076;2023-06-26T02:38:18;7.00;;;5.90;;
7539;SDS011;3811;49.006;12.076;2023-06-26T02:40:46;6.60;;;5.93;;
7539;SDS011;3811;49.006;12.076;2023-06-26T02:43:14;8.27;;;6.30;;
7539;SDS011;3811;49.006;12.076;2023-06-26T02:45:42;6.50;;;5.90;;
7539;SDS011;3811;49.006;12.076;2023-06-26T02:48:10;8.43;;;5.90;;
7539;SDS011;3811;49.006;12.076;2023-06-26T02:50:38;6.83;;;6.20;;
7539;SDS011;3811;49.006;12.076;2023-06-26T02:53:10;6.60;;;6.00;;
7539;SDS011;3811;49.006;12.076;2023-06-26T02:55:39;8.23;;;6.00;;
7539;SDS011;3811;49.006;12.076;2023-06-26T02:58:06;7.00;;;6.30;;
7539;SDS011;3811;49.006;12.076;2023-06-26T03:00:35;8.53;;;6.43;;
7539;SDS011;3811;49.006;12.076;2023-06-26T03:03:07;6.70;;;6.00;;
7539;SDS011;3811;49.006;12.076;2023-06-26T03:05:34;6.90;;;5.50;;
7539;SDS011;3811;49.006;12.076;2023-06-26T03:08:03;5.97;;;5.33;;
7539;SDS011;3811;49.006;12.076;2023-06-26T03:10:31;6.80;;;5.70;;
7539;SDS011;3811;49.006;12.076;2023-06-26T03:12:59;6.53;;;5.90;;
7539;SDS011;3811;49.006;12.076;2023-06-26T03:15:26;6.90;;;6.13;;
7539;SDS011;3811;49.006;12.076;2023-06-26T03:17:53;6.17;;;5.60;;
7539;SDS011;3811;49.006;12.076;2023-06-26T03:20:24;6.27;;;5.67;;
7539;SDS011;3811;49.006;12.076;2023-06-26T03:22:53;6.30;;;5.70;;
7539;SDS011;3811;49.006;12.076;2023-06-26T03:25:23;6.63;;;5.60;;
7539;SDS011;3811;49.006;12.076;2023-06-26T03:28:02;6.53;;;5.93;;
7539;SDS011;3811;49.006;12.076;2023-06-26T03:30:30;8.07;;;6.33;;
7539;SDS011;3811;49.006;12.076;2023-06-26T03:32:58;6.73;;;6.03;;
7539;SDS011;3811;49.006;12.076;2023-06-26T03:35:26;6.73;;;6.03;;
7539;SDS011;3811;49.006;12.076;2023-06-26T03:37:53;7.97;;;6.40;;
7539;SDS011;3811;49.006;12.076;2023-06-26T03:40:20;6.90;;;5.97;;
7539;SDS011;3811;49.006;12.076;2023-06-26T03:42:49;6.83;;;6.13;;
7539;SDS011;3811;49.006;12.076;2023-06-26T03:45:16;6.90;;;6.20;;
7539;SDS011;3811;49.006;12.076;2023-06-26T03:47:44;6.60;;;6.03;;
7539;SDS011;3811;49.006;12.076;2023-06-26T03:50:13;6.93;;;6.23;;
7539;SDS011;3811;49.006;12.076;2023-06-26T03:52:41;7.07;;;6.37;;
7539;SDS011;3811;49.006;12.076;2023-06-26T03:55:12;7.00;;;6.30;;
7539;SDS011;3811;49.006;12.076;2023-06-26T03:57:39;8.93;;;6.73;;
7539;SDS011;3811;49.006;12.076;2023-06-26T04:00:10;6.60;;;6.00;;
7539;SDS011;3811;49.006;12.076;2023-06-26T04:02:42;6.47;;;5.87;;
7539;SDS011;3811;49.006;12.076;2023-06-26T04:05:11;8.43;;;6.77;;
7539;SDS011;3811;49.006;12.076;2023-06-26T04:07:38;7.57;;;6.30;;
7539;SDS011;3811;49.006;12.076;2023-06-26T04:10:06;7.37;;;6.57;;
7539;SDS011;3811;49.006;12.076;2023-06-26T04:12:33;9.50;;;6.80;;
7539;SDS011;3811;49.006;12.076;2023-06-26T04:15:01;7.67;;;6.57;;
7539;SDS011;3811;49.006;12.076;2023-06-26T04:17:30;7.40;;;6.70;;
7539;SDS011;3811;49.006;12.076;2023-06-26T04:19:57;7.20;;;6.47;;
7539;SDS011;3811;49.006;12.076;2023-06-26T04:22:24;7.17;;;6.47;;
7539;SDS011;3811;49.006;12.076;2023-06-26T04:24:51;8.77;;;6.70;;
7539;SDS011;3811;49.006;12.076;2023-06-26T04:27:20;7.30;;;6.60;;
7539;SDS011;3811;49.006;12.076;2023-06-26T04:29:47;8.70;;;6.57;;
7539;SDS011;3811;49.006;12.076;2023-06-26T04:32:14;8.20;;;6.90;;
7539;SDS011;3811;49.006;12.076;2023-06-26T04:34:42;8.03;;;6.27;;
7539;SDS011;3811;49.006;12.076;2023-06-26T04:37:09;6.90;;;6.20;;
7539;SDS011;3811;49.006;12.076;2023-06-26T04:39:41;7.43;;;6.47;;
7539;SDS011;3811;49.006;12.076;2023-06-26T04:42:08;7.60;;;6.90;;
7539;SDS011;3811;49.006;12.076;2023-06-26T04:44:37;7.30;;;6.37;;
7539;SDS011;3811;49.006;12.076;2023-06-26T04:47:06;9.00;;;6.87;;
7539;SDS011;3811;49.006;12.076;2023-06-26T04:49:33;7.07;;;6.33;;
7539;SDS011;3811;49.006;12.076;2023-06-26T04:52:02;7.53;;;6.83;;
7539;SDS011;3811;49.006;12.076;2023-06-26T04:54:29;8.23;;;7.43;;
7539;SDS011;3811;49.006;12.076;2023-06-26T04:56:56;8.47;;;7.50;;
7539;SDS011;3811;49.006;12.076;2023-06-26T04:59:24;9.30;;;7.13;;
7539;SDS011;3811;49.006;12.076;2023-06-26T05:01:51;8.00;;;7.20;;
7539;SDS011;3811;49.006;12.076;2023-06-26T05:04:19;9.57;;;7.70;;
7539;SDS011;3811;49.006;12.076;2023-06-26T05:06:46;8.87;;;7.93;;
7539;SDS011;3811;49.006;12.076;2023-06-26T05:09:14;9.70;;;7.73;;
7539;SDS011;3811;49.006;12.076;2023-06-26T05:11:41;9.20;;;8.30;;
7539;SDS011;3811;49.006;12.076;2023-06-26T05:14:08;9.27;;;8.37;;
7539;SDS011;3811;49.006;12.076;2023-06-26T05:16:36;9.80;;;8.80;;
7539;SDS011;3811;49.006;12.076;2023-06-26T05:19:03;13.00;;;8.73;;
7539;SDS011;3811;49.006;12.076;2023-06-26T05:21:30;10.37;;;8.70;;
7539;SDS011;3811;49.006;12.076;2023-06-26T05:23:58;10.60;;;9.23;;
7539;SDS011;3811;49.006;12.076;2023-06-26T05:26:27;10.77;;;9.30;;
7539;SDS011;3811;49.006;12.076;2023-06-26T05:28:54;10.70;;;8.90;;
7539;SDS011;3811;49.006;12.076;2023-06-26T05:31:22;12.57;;;9.37;;
7539;SDS011;3811;49.006;12.076;2023-06-26T05:33:49;10.80;;;8.67;;
7539;SDS011;3811;49.006;12.076;2023-06-26T05:36:18;9.70;;;8.63;;
7539;SDS011;3811;49.006;12.076;2023-06-26T05:38:45;10.93;;;9.63;;
7539;SDS011;3811;49.006;12.076;2023-06-26T05:41:14;9.80;;;8.80;;
7539;SDS011;3811;49.006;12.076;2023-06-26T05:43:42;10.10;;;9.00;;
7539;SDS011;3811;49.006;12.076;2023-06-26T05:46:09;9.53;;;8.57;;
7539;SDS011;3811;49.006;12.076;2023-06-26T05:48:37;10.37;;;9.10;;
7539;SDS011;3811;49.006;12.076;2023-06-26T05:51:04;11.07;;;9.43;;
7539;SDS011;3811;49.006;12.076;2023-06-26T05:53:33;11.97;;;9.03;;
7539;SDS011;3811;49.006;12.076;2023-06-26T05:56:00;11.20;;;9.13;;
7539;SDS011;3811;49.006;12.076;2023-06-26T05:58:28;10.33;;;8.80;;
7539;SDS011;3811;49.006;12.076;2023-06-26T06:00:57;11.03;;;9.27;;
7539;SDS011;3811;49.006;12.076;2023-06-26T06:03:24;10.43;;;9.30;;
7539;SDS011;3811;49.006;12.076;2023-06-26T06:05:51;10.60;;;9.50;;
7539;SDS011;3811;49.006;12.076;2023-06-26T06:08:18;10.20;;;9.20;;
7539;SDS011;3811;49.006;12.076;2023-06-26T06:10:45;10.37;;;8.90;;
7539;SDS011;3811;49.006;12.076;2023-06-26T06:13:12;9.80;;;8.30;;
7539;SDS011;3811;49.006;12.076;2023-06-26T06:15:39;10.40;;;7.90;;
7539;SDS011;3811;49.006;12.076;2023-06-26T06:18:08;9.90;;;8.90;;
7539;SDS011;3811;49.006;12.076;2023-06-26T06:20:35;9.53;;;8.53;;
7539;SDS011;3811;49.006;12.076;2023-06-26T06:23:02;13.20;;;8.60;;
7539;SDS011;3811;49.006;12.076;2023-06-26T06:25:30;11.63;;;8.23;;
7539;SDS011;3811;49.006;12.076;2023-06-26T06:27:57;9.90;;;8.90;;
7539;SDS011;3811;49.006;12.076;2023-06-26T06:30:24;8.23;;;7.53;;
7539;SDS011;3811;49.006;12.076;2023-06-26T06:32:52;9.40;;;8.50;;
7539;SDS011;3811;49.006;12.076;2023-06-26T06:35:20;8.90;;;7.60;;
7539;SDS011;3811;49.006;12.076;2023-06-26T06:37:47;8.87;;;7.97;;
7539;SDS011;3811;49.006;12.076;2023-06-26T06:40:16;9.73;;;8.53;;
7539;SDS011;3811;49.006;12.076;2023-06-26T06:42:43;8.37;;;7.60;;
7539;SDS011;3811;49.006;12.076;2023-06-26T06:45:10;11.67;;;9.07;;
7539;SDS011;3811;49.006;12.076;2023-06-26T06:47:37;10.27;;;9.07;;
7539;SDS011;3811;49.006;12.076;2023-06-26T06:50:05;8.77;;;7.87;;
7539;SDS011;3811;49.006;12.076;2023-06-26T06:52:39;9.90;;;8.20;;
7539;SDS011;3811;49.006;12.076;2023-06-26T06:55:07;9.03;;;7.70;;
7539;SDS011;3811;49.006;12.076;2023-06-26T06:57:35;9.00;;;8.10;;
7539;SDS011;3811;49.006;12.076;2023-06-26T07:00:03;9.40;;;8.13;;
7539;SDS011;3811;49.006;12.076;2023-06-26T07:02:33;9.17;;;8.13;;
7539;SDS011;3811;49.006;12.076;2023-06-26T07:05:01;12.43;;;8.50;;
7539;SDS011;3811;49.006;12.076;2023-06-26T07:07:29;8.63;;;7.50;;
7539;SDS011;3811;49.006;12.076;2023-06-26T07:09:58;8.73;;;7.90;;
7539;SDS011;3811;49.006;12.076;2023-06-26T07:12:25;8.33;;;7.63;;
7539;SDS011;3811;49.006;12.076;2023-06-26T07:14:54;9.63;;;7.93;;
7539;SDS011;3811;49.006;12.076;2023-06-26T07:17:22;10.73;;;7.37;;
7539;SDS011;3811;49.006;12.076;2023-06-26T07:19:49;8.80;;;7.47;;
7539;SDS011;3811;49.006;12.076;2023-06-26T07:22:17;9.57;;;7.40;;
7539;SDS011;3811;49.006;12.076;2023-06-26T07:24:45;7.73;;;7.03;;
7539;SDS011;3811;49.006;12.076;2023-06-26T07:27:14;9.30;;;7.27;;
7539;SDS011;3811;49.006;12.076;2023-06-26T07:29:43;8.70;;;7.43;;
7539;SDS011;3811;49.006;12.076;2023-06-26T07:32:10;8.40;;;7.50;;
7539;SDS011;3811;49.006;12.076;2023-06-26T07:34:38;8.43;;;7.53;;
7539;SDS011;3811;49.006;12.076;2023-06-26T07:37:05;9.43;;;7.30;;
7539;SDS011;3811;49.006;12.076;2023-06-26T07:39:32;10.27;;;7.60;;
7539;SDS011;3811;49.006;12.076;2023-06-26T07:41:59;7.33;;;6.63;;
7539;SDS011;3811;49.006;12.076;2023-06-26T07:44:28;9.67;;;7.97;;
7539;SDS011;3811;49.006;12.076;2023-06-26T07:46:55;14.30;;;7.17;;
7539;SDS011;3811;49.006;12.076;2023-06-26T07:49:22;8.03;;;7.27;;
7539;SDS011;3811;49.006;12.076;2023-06-26T07:51:49;9.10;;;6.90;;
7539;SDS011;3811;49.006;12.076;2023-06-26T07:54:16;7.07;;;6.47;;
7539;SDS011;3811;49.006;12.076;2023-06-26T07:56:52;8.33;;;7.10;;
7539;SDS011;3811;49.006;12.076;2023-06-26T07:59:19;8.60;;;7.70;;
7539;SDS011;3811;49.006;12.076;2023-06-26T08:01:49;7.73;;;7.03;;
7539;SDS011;3811;49.006;12.076;2023-06-26T08:04:17;7.80;;;7.00;;
7539;SDS011;3811;49.006;12.076;2023-06-26T08:06:45;8.83;;;6.83;;
7539;SDS011;3811;49.006;12.076;2023-06-26T08:09:12;7.93;;;7.13;;
7539;SDS011;3811;49.006;12.076;2023-06-26T08:11:39;7.90;;;7.20;;
7539;SDS011;3811;49.006;12.076;2023-06-26T08:14:06;10.27;;;7.10;;
7539;SDS011;3811;49.006;12.076;2023-06-26T08:16:33;10.93;;;7.20;;
7539;SDS011;3811;49.006;12.076;2023-06-26T08:19:02;8.03;;;7.10;;
7539;SDS011;3811;49.006;12.076;2023-06-26T08:21:29;8.53;;;7.27;;
7539;SDS011;3811;49.006;12.076;2023-06-26T08:23:58;7.23;;;6.63;;
7539;SDS011;3811;49.006;12.076;2023-06-26T08:26:25;9.57;;;7.30;;
7539;SDS011;3811;49.006;12.076;2023-06-26T08:28:52;7.17;;;6.53;;
7539;SDS011;3811;49.006;12.076;2023-06-26T08:31:19;8.57;;;7.47;;
7539;SDS011;3811;49.006;12.076;2023-06-26T08:33:47;8.00;;;7.20;;
7539;SDS011;3811;49.006;12.076;2023-06-26T08:36:15;9.63;;;7.30;;
7539;SDS011;3811;49.006;12.076;2023-06-26T08:38:43;6.70;;;6.10;;
7539;SDS011;3811;49.006;12.076;2023-06-26T08:41:10;8.30;;;7.40;;
7539;SDS011;3811;49.006;12.076;2023-06-26T08:43:38;8.53;;;7.50;;
7539;SDS011;3811;49.006;12.076;2023-06-26T08:46:06;7.57;;;6.00;;
7539;SDS011;3811;49.006;12.076;2023-06-26T08:48:34;9.73;;;6.50;;
7539;SDS011;3811;49.006;12.076;2023-06-26T08:51:04;7.27;;;6.50;;
7539;SDS011;3811;49.006;12.076;2023-06-26T08:53:40;7.57;;;6.87;;
7539;SDS011;3811;49.006;12.076;2023-06-26T08:56:17;7.67;;;6.87;;
7539;SDS011;3811;49.006;12.076;2023-06-26T08:58:46;7.37;;;6.67;;
7539;SDS011;3811;49.006;12.076;2023-06-26T09:01:13;7.37;;;6.67;;
7539;SDS011;3811;49.006;12.076;2023-06-26T09:03:41;7.73;;;6.60;;
7539;SDS011;3811;49.006;12.076;2023-06-26T09:06:09;8.83;;;7.00;;
7539;SDS011;3811;49.006;12.076;2023-06-26T09:08:36;7.20;;;6.57;;
7539;SDS011;3811;49.006;12.076;2023-06-26T09:11:05;8.37;;;6.63;;
7539;SDS011;3811;49.006;12.076;2023-06-26T09:13:32;7.20;;;6.53;;
7539;SDS011;3811;49.006;12.076;2023-06-26T09:15:59;9.37;;;7.07;;
7539;SDS011;3811;49.006;12.076;2023-06-26T09:18:33;7.03;;;6.33;;
7539;SDS011;3811;49.006;12.076;2023-06-26T09:21:00;6.73;;;6.13;;
7539;SDS011;3811;49.006;12.076;2023-06-26T09:23:27;7.23;;;6.53;;
7539;SDS011;3811;49.006;12.076;2023-06-26T09:25:54;7.77;;;7.07;;
7539;SDS011;3811;49.006;12.076;2023-06-26T09:28:23;7.23;;;6.53;;
7539;SDS011;3811;49.006;12.076;2023-06-26T09:30:51;7.90;;;7.20;;
7539;SDS011;3811;49.006;12.076;2023-06-26T09:33:19;7.00;;;6.30;;
7539;SDS011;3811;49.006;12.076;2023-06-26T09:35:47;7.33;;;6.20;;
7539;SDS011;3811;49.006;12.076;2023-06-26T09:38:14;6.80;;;6.13;;
7539;SDS011;3811;49.006;12.076;2023-06-26T09:40:43;6.87;;;6.37;;
7539;SDS011;3811;49.006;12.076;2023-06-26T09:43:13;7.30;;;6.37;;
7539;SDS011;3811;49.006;12.076;2023-06-26T09:45:42;6.60;;;6.00;;
7539;SDS011;3811;49.006;12.076;2023-06-26T09:48:11;6.70;;;6.10;;
7539;SDS011;3811;49.006;12.076;2023-06-26T09:50:42;7.50;;;6.23;;
7539;SDS011;3811;49.006;12.076;2023-06-26T09:53:10;7.50;;;6.80;;
7539;SDS011;3811;49.006;12.076;2023-06-26T09:55:38;6.50;;;5.90;;
7539;SDS011;3811;49.006;12.076;2023-06-26T09:58:09;7.07;;;6.43;;
7539;SDS011;3811;49.006;12.076;2023-06-26T10:00:40;6.83;;;6.00;;
7539;SDS011;3811;49.006;12.076;2023-06-26T10:03:09;7.68;;;6.57;;
7539;SDS011;3811;49.006;12.076;2023-06-26T10:05:37;6.78;;;6.07;;
7539;SDS011;3811;49.006;12.076;2023-06-26T10:08:04;7.45;;;6.75;;
7539;SDS011;3811;49.006;12.076;2023-06-26T10:10:33;6.63;;;6.03;;
7539;SDS011;3811;49.006;12.076;2023-06-26T10:13:01;7.82;;;6.25;;
7539;SDS011;3811;49.006;12.076;2023-06-26T10:15:31;6.85;;;6.25;;
7539;SDS011;3811;49.006;12.076;2023-06-26T10:18:01;7.28;;;6.65;;
7539;SDS011;3811;49.006;12.076;2023-06-26T10:20:29;7.65;;;6.60;;
7539;SDS011;3811;49.006;12.076;2023-06-26T10:22:57;6.97;;;6.28;;
7539;SDS011;3811;49.006;12.076;2023-06-26T10:25:29;7.00;;;6.07;;
7539;SDS011;3811;49.006;12.076;2023-06-26T10:27:58;6.97;;;6.38;;
7539;SDS011;3811;49.006;12.076;2023-06-26T10:30:28;6.88;;;5.75;;
7539;SDS011;3811;49.006;12.076;2023-06-26T10:32:59;6.80;;;6.20;;
7539;SDS011;3811;49.006;12.076;2023-06-26T10:35:29;7.18;;;6.30;;
7539;SDS011;3811;49.006;12.076;2023-06-26T10:38:00;6.50;;;6.00;;
7539;SDS011;3811;49.006;12.076;2023-06-26T10:40:39;8.23;;;6.30;;
7539;SDS011;3811;49.006;12.076;2023-06-26T10:43:07;6.78;;;6.18;;
7539;SDS011;3811;49.006;12.076;2023-06-26T10:45:35;6.38;;;5.88;;
7539;SDS011;3811;49.006;12.076;2023-06-26T10:48:02;6.57;;;5.97;;
7539;SDS011;3811;49.006;12.076;2023-06-26T10:50:31;6.72;;;6.20;;
7539;SDS011;3811;49.006;12.076;2023-06-26T10:53:14;6.38;;;5.72;;
7539;SDS011;3811;49.006;12.076;2023-06-26T10:55:47;7.05;;;6.05;;
7539;SDS011;3811;49.006;12.076;2023-06-26T10:58:31;6.80;;;6.25;;
7539;SDS011;3811;49.006;12.076;2023-06-26T11:01:16;7.47;;;6.22;;
7539;SDS011;3811;49.006;12.076;2023-06-26T11:03:46;6.43;;;5.80;;
7539;SDS011;3811;49.006;12.076;2023-06-26T11:06:19;6.85;;;6.20;;
7539;SDS011;3811;49.006;12.076;2023-06-26T11:08:46;6.22;;;5.72;;
7539;SDS011;3811;49.006;12.076;2023-06-26T11:11:14;7.05;;;5.97;;
7539;SDS011;3811;49.006;12.076;2023-06-26T11:13:42;7.10;;;6.13;;
7539;SDS011;3811;49.006;12.076;2023-06-26T11:16:11;6.10;;;5.60;;
7539;SDS011;3811;49.006;12.076;2023-06-26T11:18:39;6.13;;;5.53;;
7539;SDS011;3811;49.006;12.076;2023-06-26T11:21:07;6.25;;;5.65;;
7539;SDS011;3811;49.006;12.076;2023-06-26T11:23:36;6.40;;;5.60;;
7539;SDS011;3811;49.006;12.076;2023-06-26T11:26:13;6.10;;;5.60;;
7539;SDS011;3811;49.006;12.076;2023-06-26T11:28:45;5.72;;;5.22;;
7539;SDS011;3811;49.006;12.076;2023-06-26T11:31:23;5.78;;;5.25;;
7539;SDS011;3811;49.006;12.076;2023-06-26T11:33:51;6.63;;;6.03;;
7539;SDS011;3811;49.006;12.076;2023-06-26T11:36:18;6.65;;;6.10;;
7539;SDS011;3811;49.006;12.076;2023-06-26T11:38:52;6.53;;;5.93;;
7539;SDS011;3811;49.006;12.076;2023-06-26T11:41:19;6.63;;;6.05;;
7539;SDS011;3811;49.006;12.076;2023-06-26T11:43:47;6.85;;;6.25;;
7539;SDS011;3811;49.006;12.076;2023-06-26T11:46:15;6.28;;;5.78;;
7539;SDS011;3811;49.006;12.076;2023-06-26T11:48:43;7.57;;;6.38;;
7539;SDS011;3811;49.006;12.076;2023-06-26T11:51:12;7.80;;;6.57;;
7539;SDS011;3811;49.006;12.076;2023-06-26T11:53:40;6.18;;;5.57;;
7539;SDS011;3811;49.006;12.076;2023-06-26T11:56:09;7.22;;;6.63;;
7539;SDS011;3811;49.006;12.076;2023-06-26T12:01:20;7.03;;;6.30;;
7539;SDS011;3811;49.006;12.076;2023-06-26T12:03:48;6.57;;;5.97;;
7539;SDS011;3811;49.006;12.076;2023-06-26T12:06:16;6.25;;;5.75;;
7539;SDS011;3811;49.006;12.076;2023-06-26T12:08:43;6.43;;;5.85;;
7539;SDS011;3811;49.006;12.076;2023-06-26T12:11:12;6.60;;;6.10;;
7539;SDS011;3811;49.006;12.076;2023-06-26T12:13:40;6.57;;;6.05;;
7539;SDS011;3811;49.006;12.076;2023-06-26T12:16:08;6.75;;;6.15;;
7539;SDS011;3811;49.006;12.076;2023-06-26T12:18:35;7.10;;;6.50;;
7539;SDS011;3811;49.006;12.076;2023-06-26T12:21:03;8.45;;;6.57;;
7539;SDS011;3811;49.006;12.076;2023-06-26T12:23:38;8.52;;;6.70;;
7539;SDS011;3811;49.006;12.076;2023-06-26T12:26:19;6.88;;;6.05;;
7539;SDS011;3811;49.006;12.076;2023-06-26T12:28:47;8.60;;;6.38;;
7539;SDS011;3811;49.006;12.076;2023-06-26T12:31:15;8.15;;;6.20;;
7539;SDS011;3811;49.006;12.076;2023-06-26T12:33:42;7.93;;;6.22;;
7539;SDS011;3811;49.006;12.076;2023-06-26T12:36:10;6.30;;;5.85;;
7539;SDS011;3811;49.006;12.076;2023-06-26T12:38:38;7.88;;;6.53;;
7539;SDS011;3811;49.006;12.076;2023-06-26T12:41:11;7.40;;;6.28;;
7539;SDS011;3811;49.006;12.076;2023-06-26T12:43:41;6.65;;;5.95;;
7539;SDS011;3811;49.006;12.076;2023-06-26T12:46:08;6.05;;;5.55;;
7539;SDS011;3811;49.006;12.076;2023-06-26T12:48:36;6.20;;;5.70;;
7539;SDS011;3811;49.006;12.076;2023-06-26T12:51:07;6.55;;;5.93;;
7539;SDS011;3811;49.006;12.076;2023-06-26T12:53:35;6.10;;;5.28;;
7539;SDS011;3811;49.006;12.076;2023-06-26T12:56:02;5.82;;;5.22;;
7539;SDS011;3811;49.006;12.076;2023-06-26T12:58:29;7.93;;;5.40;;
7539;SDS011;3811;49.006;12.076;2023-06-26T13:00:59;5.90;;;5.35;;
7539;SDS011;3811;49.006;12.076;2023-06-26T13:03:26;6.30;;;5.70;;
7539;SDS011;3811;49.006;12.076;2023-06-26T13:05:53;5.28;;;4.78;;
7539;SDS011;3811;49.006;12.076;2023-06-26T13:08:20;5.88;;;5.38;;
7539;SDS011;3811;49.006;12.076;2023-06-26T13:10:48;8.63;;;5.53;;
7539;SDS011;3811;49.006;12.076;2023-06-26T13:13:15;8.82;;;5.40;;
7539;SDS011;3811;49.006;12.076;2023-06-26T13:15:42;5.60;;;5.10;;
7539;SDS011;3811;49.006;12.076;2023-06-26T13:18:10;5.53;;;5.13;;
7539;SDS011;3811;49.006;12.076;2023-06-26T13:20:37;6.80;;;5.28;;
7539;SDS011;3811;49.006;12.076;2023-06-26T13:23:04;5.00;;;4.60;;
7539;SDS011;3811;49.006;12.076;2023-06-26T13:25:32;6.90;;;5.40;;
7539;SDS011;3811;49.006;12.076;2023-06-26T13:28:00;5.70;;;5.00;;
7539;SDS011;3811;49.006;12.076;2023-06-26T13:30:27;5.93;;;5.30;;
7539;SDS011;3811;49.006;12.076;2023-06-26T13:32:54;7.28;;;5.20;;
7539;SDS011;3811;49.006;12.076;2023-06-26T13:35:23;5.30;;;4.90;;
7539;SDS011;3811;49.006;12.076;2023-06-26T13:37:50;5.78;;;5.07;;
7539;SDS011;3811;49.006;12.076;2023-06-26T13:40:17;6.20;;;5.25;;
7539;SDS011;3811;49.006;12.076;2023-06-26T13:42:45;8.57;;;5.43;;
7539;SDS011;3811;49.006;12.076;2023-06-26T13:45:12;5.75;;;5.20;;
7539;SDS011;3811;49.006;12.076;2023-06-26T13:47:39;5.68;;;5.07;;
7539;SDS011;3811;49.006;12.076;2023-06-26T13:50:07;9.52;;;5.60;;
7539;SDS011;3811;49.006;12.076;2023-06-26T13:52:35;11.30;;;5.30;;
7539;SDS011;3811;49.006;12.076;2023-06-26T13:55:03;6.13;;;5.20;;
7539;SDS011;3811;49.006;12.076;2023-06-26T13:57:30;5.10;;;4.60;;
7539;SDS011;3811;49.006;12.076;2023-06-26T13:59:59;6.57;;;4.90;;
7539;SDS011;3811;49.006;12.076;2023-06-26T14:02:37;6.20;;;4.97;;
7539;SDS011;3811;49.006;12.076;2023-06-26T14:05:05;5.50;;;5.00;;
7539;SDS011;3811;49.006;12.076;2023-06-26T14:07:32;5.00;;;4.60;;
7539;SDS011;3811;49.006;12.076;2023-06-26T14:10:01;5.72;;;5.10;;
7539;SDS011;3811;49.006;12.076;2023-06-26T14:12:30;5.53;;;5.03;;
7539;SDS011;3811;49.006;12.076;2023-06-26T14:14:57;5.30;;;4.78;;
7539;SDS011;3811;49.006;12.076;2023-06-26T14:17:24;5.63;;;5.13;;
7539;SDS011;3811;49.006;12.076;2023-06-26T14:19:52;5.63;;;5.10;;
7539;SDS011;3811;49.006;12.076;2023-06-26T14:22:19;5.35;;;4.85;;
7539;SDS011;3811;49.006;12.076;2023-06-26T14:24:46;5.82;;;5.22;;
7539;SDS011;3811;49.006;12.076;2023-06-26T14:27:15;5.35;;;4.95;;
7539;SDS011;3811;49.006;12.076;2023-06-26T14:29:42;5.20;;;4.80;;
7539;SDS011;3811;49.006;12.076;2023-06-26T14:32:10;5.15;;;4.75;;
7539;SDS011;3811;49.006;12.076;2023-06-26T14:34:37;5.68;;;5.18;;
7539;SDS011;3811;49.006;12.076;2023-06-26T14:37:06;6.22;;;5.70;;
7539;SDS011;3811;49.006;12.076;2023-06-26T14:39:33;5.68;;;5.15;;
7539;SDS011;3811;49.006;12.076;2023-06-26T14:42:00;5.07;;;4.68;;
7539;SDS011;3811;49.006;12.076;2023-06-26T14:44:28;5.45;;;4.95;;
7539;SDS011;3811;49.006;12.076;2023-06-26T14:46:56;5.93;;;4.80;;
7539;SDS011;3811;49.006;12.076;2023-06-26T14:49:23;5.30;;;4.70;;
7539;SDS011;3811;49.006;12.076;2023-06-26T14:51:50;5.07;;;4.68;;
7539;SDS011;3811;49.006;12.076;2023-06-26T14:54:17;5.40;;;5.00;;
7539;SDS011;3811;49.006;12.076;2023-06-26T14:56:46;6.15;;;5.55;;
7539;SDS011;3811;49.006;12.076;2023-06-26T14:59:13;7.90;;;5.25;;
7539;SDS011;3811;49.006;12.076;2023-06-26T15:01:42;5.82;;;5.40;;
7539;SDS011;3811;49.006;12.076;2023-06-26T15:04:09;4.95;;;4.55;;
7539;SDS011;3811;49.006;12.076;2023-06-26T15:06:36;5.80;;;5.30;;
7539;SDS011;3811;49.006;12.076;2023-06-26T15:09:04;5.65;;;5.15;;
7539;SDS011;3811;49.006;12.076;2023-06-26T15:11:32;7.80;;;4.70;;